• Join FlightAware (Why Join?)
  • Login
  • US Flag 
11:10PM EDT


 

Airport Tracker/Info


-or-


 

Live Flight TrackerFlight Track Log ✈ N32SB ✈ 16-Sep-2013 ✈ NVSF / CCV - KMTN

Flight Track Log - Related Links

Times and Time Zones

All times are in EDT time to prevent confusion due to time zone crossing. See the N32SB flight status page for this flight to view local times or setup timezone preferences in your user account.

Time Position Orientation Groundspeed Altitude Reporting Facility
EDT Latitude Longitude Course Direction KTS MPH feet Rate Location/Type
02:00PM 37.2206 -76.5150 North 189 217 7,600  Level Washington Center
02:01PM 37.2728 -76.5081 North 191 220 7,600  Level Washington Center
02:02PM 37.3189 -76.5033 North 190 219 7,600  Level Washington Center
02:03PM 37.3522 -76.4906 17° North 194 223 7,600  Level Washington Center
02:03PM 37.3711 -76.4933 353° North 190 219 7,600  Level Washington Center
02:04PM 37.4044 -76.4808 17° North 194 223 7,600  Level Washington Center
02:04PM 37.4294 -76.4811 359° North 192 221 7,600  Level Washington Center
02:05PM 37.4817 -76.4686 11° North 191 220 7,600  Level Washington Center
02:06PM -15.8022 168.5748 North  Level Estimated
02:06PM 37.5131 -76.4611 11° North 194 223 7,600  Level Washington Center
02:06PM 37.5319 -76.4639 353° North 192 221 7,600  Level Washington Center
02:07PM 37.5653 -76.4539 13° North 194 223 7,600  Level Washington Center
02:07PM 37.5819 -76.4539 360° North 192 221 7,600  Level Washington Center
02:09PM 37.6382 -76.4526 North  Level Estimated
02:11PM 37.7992 -76.4064 North 154 177 7,600  Level Washington Center
02:12PM 37.8514 -76.3939 11° North 176 203 7,600  Level Washington Center
02:13PM 37.9100 -76.3839 North 188 216 7,600  Level Washington Center
02:14PM 37.9642 -76.3767 North 193 222 7,600  Level Washington Center
02:15PM 38.0164 -76.3642 11° North 193 222 7,600 -60 Level Washington Center
02:16PM 37.9068 -76.4466 North  Level Estimated
02:16PM 38.0706 -76.3592 North 193 222 7,500  Level Washington Center
02:17PM 38.1228 -76.3519 North 193 222 7,600  Climbing Washington Center
02:18PM 38.1769 -76.3472 North 193 222 7,600  Level Washington Center
02:19PM 38.2292 -76.3319 13° North 193 222 7,600  Level Washington Center
02:20PM 38.2836 -76.3217 North 193 222 7,600  Level Washington Center
02:21PM 38.3378 -76.3144 North 198 228 7,600  Level Washington Center
02:22PM 38.3900 -76.3017 11° North 198 228 7,600  Level Washington Center
02:23PM 38.4422 -76.2861 13° North 198 228 7,700  Climbing Washington Center
02:24PM 38.4964 -76.2733 10° North 198 228 7,600 -120 Descending Washington Center
02:25PM 38.5486 -76.2553 15° North 198 228 7,500 -120 Descending Washington Center
02:26PM 38.5967 -76.2450 North 198 228 7,400  Descending Washington Center
02:27PM 38.6489 -76.2322 11° North 198 228 7,500 60 Climbing Washington Center
02:29PM 38.6946 -76.2444 348° North  Level Estimated
02:36PM 38.9576 -76.3146 348° North  Level Estimated
02:37PM 38.9952 -76.3247 348° North  Level Estimated
02:38PM 39.0327 -76.3347 348° North  Level Estimated
02:39PM 39.0703 -76.3448 348° North  Level Estimated
02:40PM 39.1078 -76.3550 348° North  Level Estimated
02:41PM 39.1454 -76.3651 348° North  Level Estimated
02:42PM 39.1830 -76.3752 348° North  Level Estimated
02:43PM 39.2205 -76.3854 348° North  Level Estimated
02:44PM 39.2581 -76.3955 348° North  Level Estimated
02:45PM 39.2957 -76.4056 348° North  Level Estimated
02:46PM 39.3257 -76.4138 348° North  Level Estimated
02:47PM 39.3257 -76.4138 153° Southeast  Level Estimated
02:48PM 39.3257 -76.4138 153° Southeast  Level Estimated
02:49PM 39.3257 -76.4138 153° Southeast  Level Estimated
02:50PM 39.3257 -76.4138 153° Southeast  Level Estimated
02:51PM 39.3257 -76.4138 153° Southeast  Level Estimated
02:52PM 39.3257 -76.4138 153° Southeast  Level Estimated
02:53PM 39.3257 -76.4138 153° Southeast  Level Estimated
02:54PM 39.3257 -76.4138 153° Southeast  Level Estimated
02:55PM 39.3257 -76.4138 153° Southeast  Level Estimated
02:56PM 39.3257 -76.4138 153° Southeast  Level Estimated
02:57PM 39.3257 -76.4138 153° Southeast  Level Estimated
02:58PM 39.3257 -76.4138 153° Southeast  Level Estimated
02:59PM 39.3257 -76.4138 153° Southeast  Level Estimated
03:00PM 39.3257 -76.4138 153° Southeast  Level Estimated
03:01PM 39.3257 -76.4138 153° Southeast  Level Estimated
03:02PM 39.3257 -76.4138 153° Southeast  Level Estimated
03:03PM 39.3257 -76.4138 153° Southeast  Level Estimated
03:04PM 39.3257 -76.4138 153° Southeast  Level Estimated
03:05PM 39.3257 -76.4138 153° Southeast  Level Estimated
03:06PM 39.3257 -76.4138 153° Southeast  Level Estimated
03:07PM 39.3257 -76.4138 153° Southeast  Level Estimated
03:08PM 39.3257 -76.4138 153° Southeast  Level Estimated
03:09PM 39.3257 -76.4138 153° Southeast  Level Estimated